createdAt,value
2016-10-21T00:00:34.953Z,25.63
2016-10-21T00:01:47.356Z,25.63
2016-10-21T00:03:00.897Z,25.76
2016-10-21T00:04:13.839Z,25.78
2016-10-21T00:05:27.492Z,25.81
2016-10-21T00:06:40.428Z,25.81
2016-10-21T00:07:53.408Z,25.81
2016-10-21T00:09:05.844Z,25.84
2016-10-21T00:10:18.317Z,25.81
2016-10-21T00:11:31.281Z,25.76
2016-10-21T00:12:43.735Z,25.78
2016-10-21T00:13:56.676Z,25.86
2016-10-21T00:15:09.740Z,25.84
2016-10-21T00:16:22.771Z,25.81
2016-10-21T00:17:34.646Z,25.75
2016-10-21T00:18:47.635Z,25.78
2016-10-21T00:20:00.540Z,25.93
2016-10-21T00:21:12.473Z,25.91
2016-10-21T00:22:25.564Z,25.88
2016-10-21T00:23:38.523Z,25.91
2016-10-21T00:24:51.551Z,25.96
2016-10-21T00:26:05.025Z,26.01
2016-10-21T00:27:18.713Z,25.89
2016-10-21T00:28:31.706Z,25.99
2016-10-21T00:29:44.651Z,26.01
2016-10-21T00:30:57.548Z,26.03
2016-10-21T00:32:09.974Z,25.93
2016-10-21T00:33:22.905Z,25.86
2016-10-21T00:34:35.823Z,25.82
2016-10-21T00:35:48.299Z,25.78
2016-10-21T00:37:01.243Z,25.63
2016-10-21T00:38:14.844Z,25.64
2016-10-21T00:39:27.808Z,25.56
2016-10-21T00:40:40.244Z,25.57
2016-10-21T00:41:53.251Z,25.49
2016-10-21T00:43:05.670Z,25.45
2016-10-21T00:44:19.158Z,25.44
2016-10-21T00:45:32.621Z,25.47
2016-10-21T00:46:45.040Z,25.42
2016-10-21T00:47:56.994Z,25.42
2016-10-21T00:49:10.626Z,25.38
2016-10-21T00:50:23.547Z,25.32
2016-10-21T00:51:35.393Z,25.2
2016-10-21T00:52:48.303Z,25.14
2016-10-21T00:54:01.270Z,25.08
2016-10-21T00:55:14.942Z,25.08
2016-10-21T00:56:28.461Z,24.96
2016-10-21T00:57:41.893Z,24.87
2016-10-21T00:58:53.367Z,24.8
2016-10-21T01:00:06.973Z,24.77
2016-10-21T01:01:18.908Z,24.64
2016-10-21T01:02:31.877Z,24.46
2016-10-21T01:03:45.351Z,24.4
2016-10-21T01:04:57.834Z,24.36
2016-10-21T01:06:11.390Z,24.18
2016-10-21T01:07:24.477Z,24.14
2016-10-21T01:08:37.890Z,24.18
2016-10-21T01:09:50.297Z,24.03
2016-10-21T01:11:02.850Z,23.99
2016-10-21T01:12:15.774Z,24.02
2016-10-21T01:13:29.237Z,23.96
2016-10-21T01:14:42.754Z,23.92
2016-10-21T01:15:55.186Z,23.81
2016-10-21T01:17:08.241Z,23.75
2016-10-21T01:18:21.159Z,23.71
2016-10-21T01:19:34.634Z,23.63
2016-10-21T01:20:47.582Z,23.6
2016-10-21T01:22:00.125Z,23.59
2016-10-21T01:23:13.065Z,23.57
2016-10-21T01:24:26.088Z,23.6
2016-10-21T01:25:39.099Z,23.56
2016-10-21T01:26:52.682Z,23.55
2016-10-21T01:28:05.271Z,23.52
2016-10-21T01:29:18.349Z,23.59
2016-10-21T01:30:31.908Z,23.53
2016-10-21T01:31:45.362Z,23.55
2016-10-21T01:32:58.405Z,23.47
2016-10-21T01:34:10.897Z,23.44
2016-10-21T01:35:23.372Z,23.45
2016-10-21T01:36:36.868Z,23.53
2016-10-21T01:37:48.742Z,23.45
2016-10-21T01:39:01.610Z,23.52
2016-10-21T01:40:14.575Z,23.56
2016-10-21T01:41:27.524Z,23.4
2016-10-21T01:42:41.084Z,23.42
2016-10-21T01:43:53.587Z,23.45
2016-10-21T01:45:06.545Z,23.38
2016-10-21T01:46:18.471Z,23.48
2016-10-21T01:47:31.336Z,23.44
2016-10-21T01:48:44.325Z,23.44
2016-10-21T01:49:57.287Z,23.53
2016-10-21T01:51:09.718Z,23.41
2016-10-21T01:52:22.673Z,23.41
2016-10-21T01:53:35.624Z,23.41
2016-10-21T01:54:49.225Z,23.4
2016-10-21T01:56:02.170Z,23.37
2016-10-21T01:57:15.636Z,23.41
2016-10-21T01:58:28.137Z,23.38
2016-10-21T01:59:40.084Z,23.45
2016-10-21T02:00:52.473Z,23.42
2016-10-21T02:02:05.509Z,23.47
2016-10-21T02:03:18.045Z,23.44
2016-10-21T02:04:30.528Z,23.41
2016-10-21T02:05:44.195Z,23.44
2016-10-21T02:06:57.222Z,23.4
2016-10-21T02:08:10.210Z,23.38
2016-10-21T02:09:23.703Z,23.25
2016-10-21T02:10:36.610Z,23.4
2016-10-21T02:11:50.194Z,23.32
2016-10-21T02:13:02.647Z,23.32
2016-10-21T02:14:16.190Z,23.34
2016-10-21T02:15:29.147Z,23.28
2016-10-21T02:16:42.308Z,23.35
2016-10-21T02:17:54.697Z,23.44
2016-10-21T02:19:07.071Z,23.37
2016-10-21T02:20:20.065Z,23.4
2016-10-21T02:21:33.526Z,23.44
2016-10-21T02:22:46.530Z,23.41
2016-10-21T02:23:59.468Z,23.4
2016-10-21T02:25:12.571Z,23.41
2016-10-21T02:26:26.083Z,23.42
2016-10-21T02:27:38.095Z,23.41
2016-10-21T02:28:50.022Z,23.42
2016-10-21T02:30:03.447Z,23.45
2016-10-21T02:31:15.899Z,23.37
2016-10-21T02:32:29.457Z,23.44
2016-10-21T02:33:42.430Z,23.4
2016-10-21T02:34:55.929Z,23.4
2016-10-21T02:36:08.928Z,23.38
2016-10-21T02:37:21.931Z,23.48
2016-10-21T02:38:35.635Z,23.38
2016-10-21T02:39:48.659Z,23.42
2016-10-21T02:41:02.185Z,23.42
2016-10-21T02:42:15.668Z,23.41
2016-10-21T02:43:28.687Z,23.38
2016-10-21T02:44:41.294Z,23.34
2016-10-21T02:45:54.744Z,23.28
2016-10-21T02:47:07.671Z,23.28
2016-10-21T02:48:20.129Z,23.28
2016-10-21T02:49:33.784Z,23.32
2016-10-21T02:50:46.224Z,23.24
2016-10-21T02:51:59.678Z,23.34
2016-10-21T02:53:13.147Z,23.28
2016-10-21T02:54:26.062Z,23.26
2016-10-21T02:55:39.163Z,23.28
2016-10-21T02:56:52.144Z,23.35
2016-10-21T02:58:04.562Z,23.34
2016-10-21T02:59:17.996Z,23.38
2016-10-21T03:00:31.056Z,23.28
2016-10-21T03:01:44.585Z,23.29
2016-10-21T03:02:57.491Z,23.35
2016-10-21T03:04:09.929Z,23.35
2016-10-21T03:05:22.839Z,23.25
2016-10-21T03:06:36.039Z,23.38
2016-10-21T03:07:48.973Z,23.35
2016-10-21T03:09:02.419Z,23.32
2016-10-21T03:10:15.533Z,23.28
2016-10-21T03:11:28.585Z,23.29
2016-10-21T03:12:42.040Z,23.32
2016-10-21T03:13:54.403Z,23.26
2016-10-21T03:15:06.773Z,23.35
2016-10-21T03:16:19.716Z,23.29
2016-10-21T03:17:32.946Z,23.38
2016-10-21T03:18:45.599Z,23.41
2016-10-21T03:19:58.465Z,23.38
2016-10-21T03:21:11.389Z,23.35
2016-10-21T03:22:24.469Z,23.26
2016-10-21T03:23:37.989Z,23.24
2016-10-21T03:24:51.485Z,23.22
2016-10-21T03:26:04.479Z,23.22
2016-10-21T03:27:17.447Z,23.28
2016-10-21T03:28:30.413Z,23.28
2016-10-21T03:29:42.784Z,23.26
2016-10-21T03:30:55.704Z,23.26
2016-10-21T03:32:08.747Z,23.28
2016-10-21T03:33:21.963Z,23.28
2016-10-21T03:34:34.848Z,23.24
2016-10-21T03:35:47.759Z,23.29
2016-10-21T03:36:59.609Z,23.22
2016-10-21T03:38:12.540Z,23.26
2016-10-21T03:39:25.158Z,23.25
2016-10-21T03:40:38.110Z,23.35
2016-10-21T03:41:51.593Z,23.26
2016-10-21T03:43:04.054Z,23.29
2016-10-21T03:44:17.114Z,23.34
2016-10-21T03:45:29.566Z,23.25
2016-10-21T03:46:42.082Z,23.24
2016-10-21T03:47:55.089Z,23.28
2016-10-21T03:49:08.089Z,23.29
2016-10-21T03:50:21.028Z,23.25
2016-10-21T03:51:33.497Z,23.25
2016-10-21T03:52:46.485Z,23.21
2016-10-21T03:54:00.030Z,23.25
2016-10-21T03:55:13.155Z,23.19
2016-10-21T03:56:26.623Z,23.26
2016-10-21T03:57:39.576Z,23.21
2016-10-21T03:58:52.104Z,23.21
2016-10-21T04:00:04.583Z,23.25
2016-10-21T04:01:17.045Z,23.29
2016-10-21T04:02:30.095Z,23.19
2016-10-21T04:03:43.074Z,23.16
2016-10-21T04:04:55.989Z,23.18
2016-10-21T04:06:09.007Z,23.14
2016-10-21T04:07:21.974Z,23.1
2016-10-21T04:08:34.358Z,23.1
2016-10-21T04:09:46.252Z,23.1
2016-10-21T04:10:59.284Z,23.18
2016-10-21T04:12:12.910Z,23.12
2016-10-21T04:13:26.368Z,23.09
2016-10-21T04:14:37.781Z,23.16
2016-10-21T04:15:51.237Z,23.19
2016-10-21T04:17:04.383Z,23.16
2016-10-21T04:18:17.384Z,23.21
2016-10-21T04:19:30.899Z,23.26
2016-10-21T04:20:43.842Z,23.21
2016-10-21T04:21:57.275Z,23.34
2016-10-21T04:23:10.915Z,23.28
2016-10-21T04:24:24.380Z,23.25
2016-10-21T04:25:37.366Z,23.26
2016-10-21T04:26:49.833Z,23.24
2016-10-21T04:28:03.436Z,23.21
2016-10-21T04:29:15.915Z,23.29
2016-10-21T04:30:28.873Z,23.24
2016-10-21T04:31:41.771Z,23.22
2016-10-21T04:32:54.720Z,23.19
2016-10-21T04:34:07.672Z,23.29
2016-10-21T04:35:20.639Z,23.26
2016-10-21T04:36:34.175Z,23.25
2016-10-21T04:37:47.225Z,23.22
2016-10-21T04:39:00.817Z,23.25
2016-10-21T04:40:13.195Z,23.25
2016-10-21T04:41:26.683Z,23.21
2016-10-21T04:42:39.618Z,23.29
2016-10-21T04:43:52.515Z,23.24
2016-10-21T04:45:06.061Z,23.25
2016-10-21T04:46:17.973Z,23.28
2016-10-21T04:47:30.908Z,23.29
2016-10-21T04:48:43.307Z,23.22
2016-10-21T04:49:56.935Z,23.32
2016-10-21T04:51:09.314Z,23.29
2016-10-21T04:52:21.800Z,23.19
2016-10-21T04:53:34.784Z,23.28
2016-10-21T04:54:48.288Z,23.28
2016-10-21T04:56:01.853Z,23.32
2016-10-21T04:57:14.374Z,23.34
2016-10-21T04:58:27.865Z,23.32
2016-10-21T04:59:41.372Z,23.26
2016-10-21T05:00:54.611Z,23.25
2016-10-21T05:02:07.694Z,23.28
2016-10-21T05:03:20.731Z,23.32
2016-10-21T05:04:32.620Z,23.28
2016-10-21T05:05:45.596Z,23.24
2016-10-21T05:06:58.591Z,23.19
2016-10-21T05:08:10.992Z,23.29
2016-10-21T05:09:23.420Z,23.19
2016-10-21T05:10:35.877Z,23.26
2016-10-21T05:11:48.943Z,23.22
2016-10-21T05:13:00.833Z,23.22
2016-10-21T05:14:13.787Z,23.12
2016-10-21T05:15:25.679Z,23.14
2016-10-21T05:16:38.604Z,23.09
2016-10-21T05:17:51.077Z,22.96
2016-10-21T05:19:04.053Z,22.96
2016-10-21T05:20:16.984Z,23
2016-10-21T05:21:29.975Z,22.94
2016-10-21T05:22:43.704Z,22.92
2016-10-21T05:23:55.594Z,22.92
2016-10-21T05:25:08.600Z,22.97
2016-10-21T05:26:22.120Z,22.84
2016-10-21T05:27:35.056Z,22.84
2016-10-21T05:28:48.022Z,22.75
2016-10-21T05:30:01.459Z,22.71
2016-10-21T05:31:14.458Z,22.64
2016-10-21T05:32:27.384Z,22.51
2016-10-21T05:33:40.939Z,22.31
2016-10-21T05:34:53.873Z,22.24
2016-10-21T05:36:06.396Z,22.09
2016-10-21T05:37:19.965Z,21.89
2016-10-21T05:38:33.473Z,21.86
2016-10-21T05:39:46.458Z,21.73
2016-10-21T05:40:59.413Z,21.68
2016-10-21T05:42:12.344Z,21.49
2016-10-21T05:43:24.805Z,21.43
2016-10-21T05:44:37.972Z,21.37
2016-10-21T05:45:50.982Z,21.38
2016-10-21T05:47:03.453Z,21.31
2016-10-21T05:48:16.910Z,21.33
2016-10-21T05:49:29.919Z,21.23
2016-10-21T05:50:43.418Z,21.25
2016-10-21T05:51:56.940Z,21.11
2016-10-21T05:53:09.826Z,21.11
2016-10-21T05:54:22.266Z,20.93
2016-10-21T05:55:35.299Z,20.82
2016-10-21T05:56:48.791Z,20.71
2016-10-21T05:58:02.309Z,20.71
2016-10-21T05:59:15.273Z,20.61
2016-10-21T06:00:28.199Z,20.6
2016-10-21T06:01:41.191Z,20.51
2016-10-21T06:02:54.678Z,20.51
2016-10-21T06:04:08.107Z,20.44
2016-10-21T06:05:21.041Z,20.41
2016-10-21T06:06:34.125Z,20.3
2016-10-21T06:07:47.114Z,20.38
2016-10-21T06:09:00.079Z,20.26
2016-10-21T06:10:12.506Z,20.34
2016-10-21T06:11:25.455Z,20.41
2016-10-21T06:12:37.876Z,20.44
2016-10-21T06:13:51.333Z,20.44
2016-10-21T06:15:04.294Z,20.32
2016-10-21T06:16:16.782Z,20.29
2016-10-21T06:17:30.390Z,20.35
2016-10-21T06:18:43.393Z,20.44
2016-10-21T06:19:56.335Z,20.49
2016-10-21T06:21:09.817Z,20.54
2016-10-21T06:22:23.367Z,20.58
2016-10-21T06:23:36.829Z,20.71
2016-10-21T06:24:49.780Z,20.76
2016-10-21T06:26:01.737Z,20.75
2016-10-21T06:27:14.721Z,20.82
2016-10-21T06:28:27.222Z,20.79
2016-10-21T06:29:40.717Z,20.76
2016-10-21T06:30:54.134Z,20.78
2016-10-21T06:32:07.150Z,20.86
2016-10-21T06:33:19.508Z,20.82
2016-10-21T06:34:33.022Z,20.83
2016-10-21T06:35:46.482Z,20.82
2016-10-21T06:36:59.466Z,20.83
2016-10-21T06:38:11.895Z,20.83
2016-10-21T06:39:25.484Z,20.85
2016-10-21T06:40:38.964Z,20.9
2016-10-21T06:41:52.455Z,20.82
2016-10-21T06:43:04.445Z,20.86
2016-10-21T06:44:16.896Z,20.98
2016-10-21T06:45:29.903Z,20.96
2016-10-21T06:46:42.362Z,20.97
2016-10-21T06:47:55.959Z,20.98
2016-10-21T06:49:09.402Z,20.97
2016-10-21T06:50:22.538Z,21.03
2016-10-21T06:51:34.922Z,21.03
2016-10-21T06:52:48.389Z,21.01
2016-10-21T06:54:01.345Z,21.03
2016-10-21T06:55:14.285Z,21.06
2016-10-21T06:56:27.777Z,21.03
2016-10-21T06:57:41.233Z,21.09
2016-10-21T06:58:54.701Z,20.98
2016-10-21T07:00:07.659Z,21.06
2016-10-21T07:01:20.727Z,21.08
2016-10-21T07:02:33.669Z,21.13
2016-10-21T07:03:47.128Z,21.12
2016-10-21T07:04:59.522Z,21.15
2016-10-21T07:06:12.989Z,21.16
2016-10-21T07:07:25.503Z,21.13
2016-10-21T07:08:37.981Z,21.13
2016-10-21T07:09:51.569Z,21.16
2016-10-21T07:11:04.585Z,21.21
2016-10-21T07:12:18.167Z,21.18
2016-10-21T07:13:30.541Z,21.16
2016-10-21T07:14:43.505Z,21.22
2016-10-21T07:15:55.970Z,21.13
2016-10-21T07:17:08.949Z,21.15
2016-10-21T07:18:21.384Z,21.15
2016-10-21T07:19:33.900Z,21.12
2016-10-21T07:20:46.853Z,21.16
2016-10-21T07:21:59.814Z,21.15
2016-10-21T07:23:12.921Z,21.12
2016-10-21T07:24:26.415Z,21.15
2016-10-21T07:25:38.876Z,21.15
2016-10-21T07:26:51.830Z,21.11
2016-10-21T07:28:04.199Z,21.09
2016-10-21T07:29:17.763Z,21.09
2016-10-21T07:30:30.223Z,21.08
2016-10-21T07:31:43.237Z,21.12
2016-10-21T07:32:55.633Z,21.13
2016-10-21T07:34:09.339Z,21.15
2016-10-21T07:35:22.261Z,21.15
2016-10-21T07:36:34.683Z,21.13
2016-10-21T07:37:47.643Z,21.15
2016-10-21T07:39:01.148Z,21.16
2016-10-21T07:40:14.615Z,21.15
2016-10-21T07:41:28.089Z,21.25
2016-10-21T07:42:40.508Z,21.3
2016-10-21T07:43:53.444Z,21.28
2016-10-21T07:45:06.002Z,21.25
2016-10-21T07:46:18.856Z,21.25
2016-10-21T07:47:31.857Z,21.22
2016-10-21T07:48:45.350Z,21.28
2016-10-21T07:49:58.283Z,21.31
2016-10-21T07:51:11.235Z,21.31
2016-10-21T07:52:23.639Z,21.33
2016-10-21T07:53:36.066Z,21.25
2016-10-21T07:54:47.477Z,21.27
2016-10-21T07:56:00.561Z,21.34
2016-10-21T07:57:12.968Z,21.37
2016-10-21T07:58:25.940Z,21.4
2016-10-21T07:59:38.959Z,21.31
2016-10-21T08:00:52.508Z,21.38
2016-10-21T08:02:04.994Z,21.38
2016-10-21T08:03:17.943Z,21.3
2016-10-21T08:04:30.887Z,21.3
2016-10-21T08:05:44.354Z,21.45
2016-10-21T08:06:57.442Z,21.37
2016-10-21T08:08:10.939Z,21.36
2016-10-21T08:09:23.852Z,21.38
2016-10-21T08:10:36.739Z,21.38
2016-10-21T08:11:50.157Z,21.45
2016-10-21T08:13:02.689Z,21.45
2016-10-21T08:14:16.249Z,21.38
2016-10-21T08:15:28.639Z,21.41
2016-10-21T08:16:42.175Z,21.49
2016-10-21T08:17:55.287Z,21.51
2016-10-21T08:19:08.835Z,21.56
2016-10-21T08:20:21.291Z,21.56
2016-10-21T08:21:33.781Z,21.59
2016-10-21T08:22:47.245Z,21.59
2016-10-21T08:24:00.720Z,21.62
2016-10-21T08:25:13.733Z,21.59
2016-10-21T08:26:26.187Z,21.59
2016-10-21T08:27:39.085Z,21.64
2016-10-21T08:28:51.675Z,21.67
2016-10-21T08:30:04.604Z,21.61
2016-10-21T08:31:17.641Z,21.59
2016-10-21T08:32:29.986Z,21.66
2016-10-21T08:33:42.923Z,21.71
2016-10-21T08:34:55.857Z,21.66
2016-10-21T08:36:09.272Z,21.77
2016-10-21T08:37:21.709Z,21.71
2016-10-21T08:38:34.765Z,21.7
2016-10-21T08:39:47.910Z,21.83
2016-10-21T08:41:00.814Z,21.68
2016-10-21T08:42:13.732Z,21.85
2016-10-21T08:43:26.712Z,21.83
2016-10-21T08:44:38.564Z,21.86
2016-10-21T08:45:51.598Z,22
2016-10-21T08:47:03.585Z,21.9
2016-10-21T08:48:14.994Z,21.99
2016-10-21T08:49:27.525Z,21.99
2016-10-21T08:50:40.634Z,22.08
2016-10-21T08:51:53.069Z,21.99
2016-10-21T08:53:06.054Z,21.97
2016-10-21T08:54:19.063Z,22.14
2016-10-21T08:55:32.126Z,22.15
2016-10-21T08:56:45.641Z,22.02
2016-10-21T08:57:59.188Z,21.96
2016-10-21T08:59:12.312Z,22
2016-10-21T09:00:24.253Z,22.14
2016-10-21T09:01:37.610Z,22.07
2016-10-21T09:02:49.677Z,22.11
2016-10-21T09:04:02.086Z,22
2016-10-21T09:05:14.530Z,21.97
2016-10-21T09:06:28.050Z,22
2016-10-21T09:07:40.499Z,21.94
2016-10-21T09:08:52.504Z,22
2016-10-21T09:10:05.238Z,22.02
2016-10-21T09:11:19.089Z,21.94
2016-10-21T09:12:32.751Z,22.02
2016-10-21T09:13:45.295Z,21.97
2016-10-21T09:14:58.953Z,21.96
2016-10-21T09:16:12.026Z,22.04
2016-10-21T09:17:24.491Z,22
2016-10-21T09:18:37.573Z,22.02
2016-10-21T09:19:51.079Z,21.99
2016-10-21T09:21:04.476Z,22.09
2016-10-21T09:22:18.032Z,22.08
2016-10-21T09:23:31.936Z,22.16
2016-10-21T09:24:45.424Z,22.22
2016-10-21T09:25:58.427Z,22.27
2016-10-21T09:27:10.298Z,22.23
2016-10-21T09:28:23.844Z,22.38
2016-10-21T09:29:37.498Z,22.42
2016-10-21T09:30:49.892Z,22.54
2016-10-21T09:32:03.478Z,22.52
2016-10-21T09:33:15.934Z,22.64
2016-10-21T09:34:27.942Z,22.63
2016-10-21T09:35:40.958Z,22.66
2016-10-21T09:36:53.899Z,22.67
2016-10-21T09:38:06.897Z,22.78
2016-10-21T09:39:19.373Z,22.86
2016-10-21T09:40:32.400Z,22.85
2016-10-21T09:41:45.375Z,22.86
2016-10-21T09:42:58.341Z,22.97
2016-10-21T09:44:11.845Z,23.04
2016-10-21T09:45:24.990Z,22.96
2016-10-21T09:46:38.540Z,23.07
2016-10-21T09:47:52.067Z,23.1
2016-10-21T09:49:05.097Z,23.14
2016-10-21T09:50:17.547Z,23.12
2016-10-21T09:51:29.428Z,23.18
2016-10-21T09:52:41.992Z,23.28
2016-10-21T09:53:54.560Z,23.29
2016-10-21T09:55:07.562Z,23.44
2016-10-21T09:56:20.633Z,23.48
2016-10-21T09:57:33.693Z,23.57
2016-10-21T09:58:47.392Z,23.63
2016-10-21T10:00:00.471Z,23.75
2016-10-21T10:01:13.901Z,23.75
2016-10-21T10:02:26.866Z,23.9
2016-10-21T10:03:39.321Z,23.92
2016-10-21T10:04:52.251Z,24.15
2016-10-21T10:06:04.769Z,24.27
2016-10-21T10:07:16.841Z,24.46
2016-10-21T10:08:30.096Z,24.67
2016-10-21T10:09:42.848Z,24.7
2016-10-21T10:10:55.796Z,24.89
2016-10-21T10:12:08.798Z,25.15
2016-10-21T10:13:21.859Z,25.15
2016-10-21T10:14:35.531Z,25.17
2016-10-21T10:15:48.024Z,25.17
2016-10-21T10:17:01.047Z,25.22
2016-10-21T10:19:58.848Z,25.38
2016-10-21T10:21:12.952Z,25.41
2016-10-21T10:22:25.979Z,25.41
2016-10-21T10:23:39.932Z,25.42
2016-10-21T10:24:52.443Z,25.47
2016-10-21T10:26:05.012Z,25.44
2016-10-21T10:27:18.100Z,25.37
2016-10-21T10:28:30.052Z,25.48
2016-10-21T10:29:43.818Z,25.34
2016-10-21T10:30:56.994Z,25.3
2016-10-21T10:32:09.971Z,25.27
2016-10-21T10:33:23.064Z,25.27
2016-10-21T10:34:36.112Z,25.26
2016-10-21T10:35:48.003Z,25.2
2016-10-21T10:37:00.946Z,25.22
2016-10-21T10:38:12.831Z,25.09
2016-10-21T10:39:25.761Z,25.02
2016-10-21T10:40:38.892Z,24.89
2016-10-21T10:41:52.031Z,25.07
2016-10-21T10:43:05.632Z,24.9
2016-10-21T10:44:17.497Z,25.02
2016-10-21T10:45:30.649Z,24.94
2016-10-21T10:46:43.576Z,24.94
2016-10-21T10:47:57.098Z,24.89
2016-10-21T10:49:10.566Z,25.02
2016-10-21T10:50:23.697Z,25.09
2016-10-21T10:51:36.691Z,25.27
2016-10-21T10:52:50.586Z,25.3
2016-10-21T10:54:04.051Z,25.44
2016-10-21T10:55:17.019Z,25.48
2016-10-21T10:56:30.620Z,25.56
2016-10-21T10:57:43.096Z,25.67
2016-10-21T10:58:55.501Z,25.74
2016-10-21T11:00:09.159Z,25.81
2016-10-21T11:01:21.938Z,25.82
2016-10-21T11:02:35.202Z,25.84
2016-10-21T11:03:48.707Z,25.82
2016-10-21T11:05:01.693Z,25.94
2016-10-21T11:06:14.220Z,25.96
2016-10-21T11:07:26.756Z,25.99
2016-10-21T11:08:39.901Z,26.01
2016-10-21T11:09:52.376Z,26.01
2016-10-21T11:11:05.913Z,25.93
2016-10-21T11:12:19.024Z,25.99
2016-10-21T11:13:31.473Z,25.99
2016-10-21T11:14:44.512Z,25.91
2016-10-21T11:15:57.542Z,25.78
2016-10-21T11:17:10.054Z,25.7
2016-10-21T11:18:23.160Z,25.74
2016-10-21T11:19:36.182Z,25.74
2016-10-21T11:20:48.905Z,25.81
2016-10-21T11:22:00.903Z,25.82
2016-10-21T11:23:12.366Z,25.82
2016-10-21T11:24:25.962Z,25.85
2016-10-21T11:25:39.385Z,25.79
2016-10-21T11:26:53.016Z,25.85
2016-10-21T11:28:05.989Z,25.76
2016-10-21T11:29:19.508Z,25.84
2016-10-21T11:30:32.453Z,25.96
2016-10-21T11:31:45.478Z,25.97
2016-10-21T11:32:58.984Z,25.96
2016-10-21T11:34:11.441Z,26.04
2016-10-21T11:35:24.440Z,26.16
2016-10-21T11:36:37.449Z,26.35
2016-10-21T11:37:49.852Z,26.44
2016-10-21T11:39:02.779Z,26.63
2016-10-21T11:40:15.352Z,26.84
2016-10-21T11:41:27.284Z,27
2016-10-21T11:42:40.287Z,27.23
2016-10-21T11:43:53.281Z,27.34
2016-10-21T11:45:06.382Z,27.38
2016-10-21T11:46:19.513Z,27.46
2016-10-21T11:47:31.956Z,27.49
2016-10-21T11:48:44.406Z,27.65
2016-10-21T11:49:57.389Z,27.89
2016-10-21T11:51:09.499Z,27.99
2016-10-21T11:52:22.567Z,28.08
2016-10-21T11:53:35.011Z,28.11
2016-10-21T11:54:48.541Z,28.12
2016-10-21T11:56:01.005Z,28.2
2016-10-21T11:57:14.555Z,28.31
2016-10-21T11:58:27.555Z,28.26
2016-10-21T11:59:40.992Z,28.3
2016-10-21T12:00:53.983Z,28.35
2016-10-21T12:02:06.604Z,28.18
2016-10-21T12:03:19.051Z,28.08
2016-10-21T12:05:02.758Z,27.94
2016-10-21T12:06:15.705Z,27.84
2016-10-21T12:07:29.462Z,27.72
2016-10-21T12:08:42.908Z,27.59
2016-10-21T12:09:55.346Z,27.51
2016-10-21T12:11:08.803Z,27.34
2016-10-21T12:12:22.353Z,27.15
2016-10-21T12:13:35.459Z,27
2016-10-21T12:14:48.713Z,26.93
2016-10-21T12:16:01.162Z,26.79
2016-10-21T12:17:14.157Z,26.63
2016-10-21T12:18:27.263Z,26.61
2016-10-21T12:19:40.316Z,26.72
2016-10-21T12:20:53.888Z,26.67
2016-10-21T12:22:06.853Z,26.67
2016-10-21T12:23:19.278Z,26.63
2016-10-21T12:24:32.255Z,26.75
2016-10-21T12:25:45.219Z,26.81
2016-10-21T12:26:58.266Z,26.94
2016-10-21T12:28:10.789Z,27.04
2016-10-21T12:29:23.932Z,27.21
2016-10-21T12:30:37.354Z,27.43
2016-10-21T12:31:50.877Z,27.69
2016-10-21T12:33:03.397Z,27.99
2016-10-21T12:34:16.465Z,28.23
2016-10-21T12:35:30.122Z,28.28
2016-10-21T12:36:43.714Z,28.54
2016-10-21T12:37:56.776Z,28.46
2016-10-21T12:39:09.761Z,28.49
2016-10-21T12:40:22.951Z,28.6
2016-10-21T12:41:35.424Z,28.58
2016-10-21T12:42:48.503Z,28.63
2016-10-21T12:44:01.063Z,28.67
2016-10-21T12:45:14.015Z,28.68
2016-10-21T12:46:26.448Z,28.63
2016-10-21T12:47:40.069Z,28.51
2016-10-21T12:48:51.966Z,28.51
2016-10-21T12:50:04.961Z,28.51
2016-10-21T12:51:17.623Z,28.46
2016-10-21T12:52:30.566Z,28.38
2016-10-21T12:53:43.533Z,28.36
2016-10-21T12:54:56.446Z,28.33
2016-10-21T12:56:09.581Z,28.28
2016-10-21T12:57:22.277Z,28.06
2016-10-21T12:58:34.227Z,27.93
2016-10-21T12:59:46.961Z,27.93
2016-10-21T13:00:59.999Z,27.94
2016-10-21T13:02:12.635Z,27.94
2016-10-21T13:03:25.641Z,27.87
2016-10-21T13:04:39.170Z,27.86
2016-10-21T13:05:52.724Z,27.98
2016-10-21T13:07:04.705Z,27.91
2016-10-21T13:08:18.373Z,28.09
2016-10-21T13:09:31.373Z,28.18
2016-10-21T13:10:44.844Z,28.18
2016-10-21T13:11:57.878Z,28.26
2016-10-21T13:13:10.959Z,28.17
2016-10-21T13:14:23.962Z,28.18
2016-10-21T13:15:37.526Z,28.18
2016-10-21T13:16:49.591Z,28.18
2016-10-21T13:18:03.135Z,28.2
2016-10-21T13:19:15.683Z,28.2
2016-10-21T13:20:29.147Z,28.21
2016-10-21T13:21:42.137Z,28.24
2016-10-21T13:22:55.060Z,28.18
2016-10-21T13:24:08.118Z,28.24
2016-10-21T13:25:21.056Z,28.23
2016-10-21T13:26:34.036Z,28.06
2016-10-21T13:27:47.590Z,28.11
2016-10-21T13:29:00.111Z,28.06
2016-10-21T13:30:12.665Z,27.91
2016-10-21T13:31:24.568Z,27.87
2016-10-21T13:32:40.358Z,27.74
2016-10-21T13:33:58.697Z,27.59
2016-10-21T13:35:15.485Z,27.45
2016-10-21T13:36:29.644Z,27.31
2016-10-21T13:37:44.825Z,27.23
2016-10-21T13:38:59.195Z,27.05
2016-10-21T13:40:12.353Z,26.97
2016-10-21T13:41:25.441Z,26.93
2016-10-21T13:42:38.475Z,26.75
2016-10-21T13:43:51.590Z,26.76
2016-10-21T13:45:04.200Z,26.68
2016-10-21T13:46:17.166Z,26.63
2016-10-21T13:47:29.632Z,26.67
2016-10-21T13:48:42.651Z,26.75
2016-10-21T13:49:56.328Z,26.59
2016-10-21T13:51:10.046Z,26.63
2016-10-21T13:52:23.217Z,26.71
2016-10-21T13:53:36.671Z,26.72
2016-10-21T13:54:50.204Z,26.61
2016-10-21T13:56:02.785Z,26.59
2016-10-21T13:57:15.344Z,26.53
2016-10-21T13:58:28.911Z,26.49
2016-10-21T13:59:40.367Z,26.52
2016-10-21T14:00:52.768Z,26.52
2016-10-21T14:02:05.964Z,26.67
2016-10-21T14:03:18.655Z,26.57
2016-10-21T14:04:31.640Z,26.53
2016-10-21T14:05:44.354Z,26.41
2016-10-21T14:06:57.448Z,26.39
2016-10-21T14:08:10.518Z,26.41
2016-10-21T14:09:23.515Z,26.39
2016-10-21T14:10:35.447Z,26.42
2016-10-21T14:11:48.048Z,26.38
2016-10-21T14:13:01.139Z,26.37
2016-10-21T14:14:13.612Z,26.22
2016-10-21T14:15:26.527Z,26.22
2016-10-21T14:16:39.512Z,26.24
2016-10-21T14:17:52.622Z,26.23
2016-10-21T14:19:06.121Z,26.12
2016-10-21T14:20:19.760Z,26.16
2016-10-21T14:21:32.195Z,26.17
2016-10-21T14:22:44.185Z,26.19
2016-10-21T14:23:55.187Z,26.2
2016-10-21T14:25:08.888Z,26.22
2016-10-21T14:26:20.820Z,26.2
2016-10-21T14:27:33.809Z,26.11
2016-10-21T14:28:46.945Z,26.09
2016-10-21T14:29:59.408Z,26.17
2016-10-21T14:31:11.326Z,26.24
2016-10-21T14:32:24.913Z,26.24
2016-10-21T14:33:37.872Z,26.19
2016-10-21T14:34:50.436Z,26.16
2016-10-21T14:36:03.501Z,26.09
2016-10-21T14:37:14.903Z,26.07
2016-10-21T14:38:27.874Z,26.15
2016-10-21T14:39:40.419Z,26.17
2016-10-21T14:40:53.875Z,26.2
2016-10-21T14:42:06.855Z,26.2
2016-10-21T14:43:19.267Z,26.42
2016-10-21T14:44:32.251Z,26.57
2016-10-21T14:45:45.552Z,26.67
2016-10-21T14:46:58.739Z,26.79
2016-10-21T14:48:11.728Z,26.99
2016-10-21T14:49:25.337Z,27.15
2016-10-21T14:50:37.377Z,27.24
2016-10-21T14:51:50.346Z,27.28
2016-10-21T14:53:03.349Z,27.36
2016-10-21T14:54:16.444Z,27.26
2016-10-21T14:55:30.200Z,27.27
2016-10-21T14:56:43.176Z,27.09
2016-10-21T14:57:56.813Z,27.24
2016-10-21T14:59:10.563Z,27.26
2016-10-21T15:00:24.001Z,27.26
2016-10-21T15:01:37.601Z,27.12
2016-10-21T15:02:50.026Z,27.13
2016-10-21T15:04:03.013Z,27.12
2016-10-21T15:05:15.990Z,27.21
2016-10-21T15:06:29.042Z,27.28
2016-10-21T15:07:42.144Z,27.41
2016-10-21T15:08:55.694Z,27.55
2016-10-21T15:10:08.183Z,27.74
2016-10-21T15:11:19.729Z,27.99
2016-10-21T15:12:31.832Z,28.18
2016-10-21T15:13:45.342Z,28.35
2016-10-21T15:14:58.680Z,28.7
2016-10-21T15:16:11.092Z,28.73
2016-10-21T15:17:24.705Z,29.02
2016-10-21T15:18:38.319Z,29.13
2016-10-21T15:19:51.811Z,29.35
2016-10-21T15:21:04.290Z,29.58
2016-10-21T15:22:16.750Z,29.66
2016-10-21T15:23:29.815Z,29.81
2016-10-21T15:24:42.223Z,29.81
2016-10-21T15:25:55.262Z,29.72
2016-10-21T15:27:08.007Z,29.81
2016-10-21T15:28:20.990Z,29.77
2016-10-21T15:29:34.048Z,29.69
2016-10-21T15:30:46.953Z,29.67
2016-10-21T15:32:00.465Z,29.76
2016-10-21T15:33:13.500Z,29.72
2016-10-21T15:34:27.151Z,29.6
2016-10-21T15:35:40.190Z,29.54
2016-10-21T15:36:53.735Z,29.39
2016-10-21T15:38:07.181Z,29.36
2016-10-21T15:39:20.132Z,29.39
2016-10-21T15:40:32.618Z,29.48
2016-10-21T15:41:45.665Z,29.5
2016-10-21T15:42:59.173Z,29.43
2016-10-21T15:44:12.662Z,29.65
2016-10-21T15:45:26.249Z,29.88